createdAt,value
2023-04-25T00:00:07.929Z,97816.78
2023-04-25T00:03:10.629Z,97829.81
2023-04-25T00:06:12.224Z,97826.44
2023-04-25T00:09:13.673Z,97819.53
2023-04-25T00:12:16.038Z,97821.25
2023-04-25T00:15:17.417Z,97827.28
2023-04-25T00:18:18.901Z,97835.97
2023-04-25T00:21:20.815Z,97826.50
2023-04-25T00:24:22.279Z,97821.38
2023-04-25T00:27:23.791Z,97821.44
2023-04-25T00:30:25.294Z,97823.16
2023-04-25T00:33:26.783Z,97816.22
2023-04-25T00:36:28.498Z,97803.31
2023-04-25T00:39:29.980Z,97807.59
2023-04-25T00:42:31.408Z,97801.47
2023-04-25T00:45:33.609Z,97798.13
2023-04-25T00:48:35.155Z,97795.53
2023-04-25T00:51:36.812Z,97792.06
2023-04-25T00:54:38.331Z,97778.22
2023-04-25T00:57:39.835Z,97777.47
2023-04-25T01:00:42.253Z,97781.84
2023-04-25T01:03:43.864Z,97777.50
2023-04-25T01:06:45.988Z,97781.84
2023-04-25T01:09:47.516Z,97782.75
2023-04-25T01:12:48.973Z,97777.56
2023-04-25T01:15:50.425Z,97779.31
2023-04-25T01:18:52.221Z,97775.06
2023-04-25T01:21:53.652Z,97768.09
2023-04-25T01:24:55.105Z,97756.84
2023-04-25T01:27:56.779Z,97756.88
2023-04-25T01:30:58.235Z,97764.66
2023-04-25T01:33:59.841Z,97751.69
2023-04-25T01:37:02.258Z,97752.56
2023-04-25T01:40:03.675Z,97751.69
2023-04-25T01:43:05.166Z,97753.41
2023-04-25T01:46:07.055Z,97743.03
2023-04-25T01:49:08.538Z,97745.63
2023-04-25T01:52:09.968Z,97750.78
2023-04-25T01:55:11.415Z,97749.91
2023-04-25T01:58:14.006Z,97742.16
2023-04-25T02:01:15.590Z,97747.28
2023-04-25T02:04:17.428Z,97742.06
2023-04-25T02:07:19.031Z,97743.81
2023-04-25T02:10:20.542Z,97743.78
2023-04-25T02:13:22.023Z,97745.59
2023-04-25T02:16:23.614Z,97738.69
2023-04-25T02:19:25.634Z,97743.88
2023-04-25T02:22:27.831Z,97737.78
2023-04-25T02:25:29.340Z,97733.47
2023-04-25T02:28:31.368Z,97730.91
2023-04-25T02:31:32.869Z,97731.78
2023-04-25T02:34:34.330Z,97730.03
2023-04-25T02:37:36.549Z,97725.72
2023-04-25T02:40:38.072Z,97725.69
2023-04-25T02:43:39.553Z,97722.22
2023-04-25T02:46:41.043Z,97716.13
2023-04-25T02:49:42.538Z,97723.13
2023-04-25T02:52:44.036Z,97716.16
2023-04-25T02:55:45.539Z,97722.19
2023-04-25T02:58:47.032Z,97711.81
2023-04-25T03:01:48.460Z,97723.94
2023-04-25T03:04:50.107Z,97715.31
2023-04-25T03:07:51.734Z,97723.97
2023-04-25T03:10:56.413Z,97714.53
2023-04-25T03:13:57.874Z,97709.34
2023-04-25T03:16:59.355Z,97710.19
2023-04-25T03:20:01.206Z,97706.81
2023-04-25T03:23:02.759Z,97701.59
2023-04-25T03:26:04.236Z,97696.38
2023-04-25T03:29:05.684Z,97711.06
2023-04-25T03:32:07.159Z,97715.41
2023-04-25T03:35:08.781Z,97720.66
2023-04-25T03:38:10.279Z,97726.72
2023-04-25T03:41:11.721Z,97728.41
2023-04-25T03:44:13.204Z,97728.50
2023-04-25T03:47:14.660Z,97730.19
2023-04-25T03:50:16.133Z,97736.25
2023-04-25T03:53:17.566Z,97735.34
2023-04-25T03:56:19.014Z,97733.63
2023-04-25T03:59:20.494Z,97723.22
2023-04-25T04:02:22.017Z,97715.47
2023-04-25T04:05:24.435Z,97716.34
2023-04-25T04:08:25.964Z,97714.63
2023-04-25T04:11:27.494Z,97709.44
2023-04-25T04:14:29.345Z,97708.56
2023-04-25T04:17:31.281Z,97701.63
2023-04-25T04:20:32.777Z,97700.78
2023-04-25T04:23:34.611Z,97696.47
2023-04-25T04:26:36.051Z,97690.41
2023-04-25T04:29:37.583Z,97691.34
2023-04-25T04:32:39.233Z,97691.31
2023-04-25T04:35:40.939Z,97698.22
2023-04-25T04:38:43.268Z,97699.09
2023-04-25T04:41:44.723Z,97699.06
2023-04-25T04:44:46.158Z,97700.84
2023-04-25T04:47:49.425Z,97699.91
2023-04-25T04:50:51.117Z,97696.47
2023-04-25T04:53:52.860Z,97703.41
2023-04-25T04:56:54.832Z,97711.22
2023-04-25T04:59:56.344Z,97710.38
2023-04-25T05:02:57.930Z,97712.03
2023-04-25T05:05:59.638Z,97711.16
2023-04-25T05:09:01.174Z,97705.09
2023-04-25T05:12:03.053Z,97709.41
2023-04-25T05:15:04.757Z,97705.97
2023-04-25T05:18:06.271Z,97717.19
2023-04-25T05:21:07.726Z,97711.19
2023-04-25T05:24:09.177Z,97705.09
2023-04-25T05:27:10.683Z,97707.63
2023-04-25T05:30:12.444Z,97703.31
2023-04-25T05:33:14.050Z,97703.28
2023-04-25T05:36:15.534Z,97711.06
2023-04-25T05:39:18.293Z,97713.63
2023-04-25T05:42:19.759Z,97717.13
2023-04-25T05:45:21.223Z,97717.94
2023-04-25T05:48:24.999Z,97723.94
2023-04-25T05:51:26.932Z,97720.53
2023-04-25T05:54:28.400Z,97719.75
2023-04-25T05:57:29.851Z,97717.94
2023-04-25T06:00:31.514Z,97718.72
2023-04-25T06:03:33.100Z,97725.66
2023-04-25T06:06:34.781Z,97728.25
2023-04-25T06:09:36.240Z,97724.09
2023-04-25T06:12:37.792Z,97723.22
2023-04-25T06:15:39.270Z,97721.56
2023-04-25T06:18:40.742Z,97724.06
2023-04-25T06:21:43.885Z,97718.94
2023-04-25T06:24:46.740Z,97725.03
2023-04-25T06:27:48.256Z,97723.22
2023-04-25T06:30:49.719Z,97725.88
2023-04-25T06:33:51.545Z,97727.59
2023-04-25T06:36:53.170Z,97720.69
2023-04-25T06:39:54.622Z,97722.41
2023-04-25T06:42:56.113Z,97725.03
2023-04-25T06:45:57.549Z,97725.00
2023-04-25T06:48:59.054Z,97720.69
2023-04-25T06:52:00.497Z,97722.41
2023-04-25T06:55:01.956Z,97723.22
2023-04-25T06:58:04.236Z,97728.44
2023-04-25T07:01:05.810Z,97734.53
2023-04-25T07:04:07.488Z,97731.94
2023-04-25T07:07:09.091Z,97741.44
2023-04-25T07:10:10.754Z,97753.56
2023-04-25T07:13:12.223Z,97747.50
2023-04-25T07:16:13.704Z,97755.31
2023-04-25T07:19:15.349Z,97752.72
2023-04-25T07:22:16.795Z,97762.25
2023-04-25T07:25:18.397Z,97771.75
2023-04-25T07:28:19.934Z,97783.84
2023-04-25T07:31:21.498Z,97787.31
2023-04-25T07:34:22.986Z,97789.03
2023-04-25T07:37:24.525Z,97796.81
2023-04-25T07:40:25.997Z,97805.44
2023-04-25T07:43:27.561Z,97815.81
2023-04-25T07:46:29.024Z,97820.03
2023-04-25T07:49:30.556Z,97841.59
2023-04-25T07:52:32.202Z,97851.03
2023-04-25T07:55:33.644Z,97857.03
2023-04-25T07:58:35.215Z,97874.28
2023-04-25T08:01:36.854Z,97876.84
2023-04-25T08:04:38.459Z,97887.22
2023-04-25T08:07:40.037Z,97894.88
2023-04-25T08:10:41.962Z,97903.47
2023-04-25T08:13:43.412Z,97913.75
2023-04-25T08:16:44.904Z,97917.19
2023-04-25T08:19:46.422Z,97912.06
2023-04-25T08:22:49.578Z,97923.25
2023-04-25T08:25:51.034Z,97928.28
2023-04-25T08:28:53.026Z,97932.66
2023-04-25T08:31:55.011Z,97940.47
2023-04-25T08:34:56.662Z,97943.09
2023-04-25T08:37:58.208Z,97952.75
2023-04-25T08:40:59.640Z,97951.03
2023-04-25T08:44:01.777Z,97955.34
2023-04-25T08:47:06.632Z,97969.91
2023-04-25T08:50:08.401Z,97979.41
2023-04-25T08:53:10.525Z,97977.59
2023-04-25T08:56:14.057Z,97983.69
2023-04-25T08:59:15.520Z,97984.56
2023-04-25T09:02:19.034Z,98001.97
2023-04-25T09:05:21.775Z,98006.31
2023-04-25T09:08:23.428Z,98016.59
2023-04-25T09:11:25.107Z,98026.00
2023-04-25T09:14:26.997Z,98026.13
2023-04-25T09:17:29.727Z,98022.66
2023-04-25T09:20:31.804Z,98032.28
2023-04-25T09:23:44.638Z,98029.06
2023-04-25T09:26:45.927Z,98041.00
2023-04-25T09:29:47.416Z,98040.97
2023-04-25T09:32:48.897Z,98055.50
2023-04-25T09:35:56.172Z,98070.97
2023-04-25T09:38:58.237Z,98062.34
2023-04-25T09:42:00.299Z,98066.63
2023-04-25T09:45:04.665Z,98060.53
2023-04-25T09:48:07.779Z,98066.81
2023-04-25T09:51:13.461Z,98072.84
2023-04-25T09:54:14.906Z,98074.31
2023-04-25T09:57:21.383Z,98070.06
2023-04-25T10:00:23.370Z,98084.63
2023-04-25T10:03:25.034Z,98087.25
2023-04-25T10:06:27.332Z,98083.22
2023-04-25T10:09:30.543Z,98086.72
2023-04-25T10:12:32.582Z,98096.97
2023-04-25T10:15:40.463Z,98090.81
2023-04-25T10:18:42.124Z,98089.91
2023-04-25T10:21:52.420Z,98095.25
2023-04-25T10:24:53.888Z,98091.06
2023-04-25T10:27:55.344Z,98097.03
2023-04-25T10:31:03.983Z,98091.97
2023-04-25T10:34:06.359Z,98082.47
2023-04-25T10:37:09.940Z,98084.16
2023-04-25T10:40:11.923Z,98090.97
2023-04-25T10:43:31.655Z,98078.72
2023-04-25T10:46:34.954Z,98079.66
2023-04-25T10:49:37.960Z,98077.19
2023-04-25T10:52:42.431Z,98072.81
2023-04-25T10:55:53.002Z,98081.34
2023-04-25T10:59:13.371Z,98082.41
2023-04-25T11:02:15.171Z,98081.66
2023-04-25T11:05:50.989Z,98078.19
2023-04-25T11:08:56.848Z,98078.97
2023-04-25T11:11:59.291Z,98083.41
2023-04-25T11:15:04.902Z,98097.22
2023-04-25T11:18:09.572Z,98090.47
2023-04-25T11:21:11.708Z,98093.94
2023-04-25T11:24:13.195Z,98099.22
2023-04-25T11:27:14.869Z,98095.00
2023-04-25T11:30:16.886Z,98095.91
2023-04-25T11:33:18.443Z,98102.09
2023-04-25T11:36:20.625Z,98099.66
2023-04-25T11:39:22.382Z,98091.03
2023-04-25T11:42:23.901Z,98101.38
2023-04-25T11:45:25.704Z,98142.13
2023-04-25T11:48:27.244Z,98151.53
2023-04-25T11:51:28.759Z,98164.63
2023-04-25T11:54:30.437Z,98186.31
2023-04-25T11:57:32.421Z,98203.69
2023-04-25T12:00:33.909Z,98199.34
2023-04-25T12:03:35.685Z,98197.63
2023-04-25T12:06:41.188Z,98192.38
2023-04-25T12:09:42.983Z,98179.44
2023-04-25T12:12:46.560Z,98182.03
2023-04-25T12:15:48.097Z,98170.72
2023-04-25T12:18:53.792Z,98174.09
2023-04-25T12:21:58.818Z,98200.88
2023-04-25T12:25:01.116Z,98213.88
2023-04-25T12:28:15.680Z,98218.94
2023-04-25T12:31:17.279Z,98220.53
2023-04-25T12:34:19.739Z,98233.16
2023-04-25T12:37:21.303Z,98235.84
2023-04-25T12:40:22.745Z,98238.69
2023-04-25T12:43:24.270Z,98236.16
2023-04-25T12:46:25.801Z,98241.25
2023-04-25T12:49:27.258Z,98248.06
2023-04-25T12:52:28.755Z,98254.38
2023-04-25T12:55:30.613Z,98259.44
2023-04-25T12:58:32.174Z,98247.91
2023-04-25T13:01:35.659Z,98258.47
2023-04-25T13:04:39.160Z,98267.22
2023-04-25T13:07:40.803Z,98250.09
2023-04-25T13:10:42.835Z,98248.34
2023-04-25T13:13:44.385Z,98248.28
2023-04-25T13:16:46.735Z,98237.25
2023-04-25T13:19:48.066Z,98241.53
2023-04-25T13:22:49.517Z,98246.66
2023-04-25T13:25:50.960Z,98257.28
2023-04-25T13:28:52.406Z,98261.75
2023-04-25T13:31:53.876Z,98244.81
2023-04-25T13:34:55.347Z,98238.56
2023-04-25T13:37:57.099Z,98228.16
2023-04-25T13:40:58.656Z,98224.66
2023-04-25T13:44:00.681Z,98220.28
2023-04-25T13:47:02.224Z,98218.53
2023-04-25T13:50:04.775Z,98207.28
2023-04-25T13:53:06.899Z,98191.75
2023-04-25T13:56:08.387Z,98193.47
2023-04-25T13:59:09.830Z,98179.97
2023-04-25T14:02:11.302Z,98178.47
2023-04-25T14:05:12.786Z,98169.91
2023-04-25T14:08:14.358Z,98172.44
2023-04-25T14:11:15.964Z,98158.44
2023-04-25T14:14:17.409Z,98169.84
2023-04-25T14:17:19.666Z,98168.97
2023-04-25T14:20:22.248Z,98163.56
2023-04-25T14:23:23.750Z,98165.34
2023-04-25T14:26:25.309Z,98176.63
2023-04-25T14:29:27.077Z,98181.81
2023-04-25T14:32:28.720Z,98199.31
2023-04-25T14:35:30.290Z,98193.97
2023-04-25T14:38:31.741Z,98200.81
2023-04-25T14:41:33.291Z,98213.88
2023-04-25T14:44:34.751Z,98227.94
2023-04-25T14:47:37.436Z,98229.47
2023-04-25T14:50:38.944Z,98235.53
2023-04-25T14:53:41.065Z,98250.38
2023-04-25T14:56:42.512Z,98247.59
2023-04-25T14:59:43.972Z,98244.72
2023-04-25T15:02:45.564Z,98265.81
2023-04-25T15:05:47.148Z,98274.72
2023-04-25T15:08:48.638Z,98274.44
2023-04-25T15:11:50.302Z,98275.28
2023-04-25T15:14:51.751Z,98276.00
2023-04-25T15:17:53.305Z,98293.41
2023-04-25T15:20:54.851Z,98299.69
2023-04-25T15:23:56.745Z,98303.00
2023-04-25T15:26:59.293Z,98298.50
2023-04-25T15:30:00.822Z,98294.75
2023-04-25T15:33:02.370Z,98299.38
2023-04-25T15:36:04.258Z,98305.44
2023-04-25T15:39:05.843Z,98312.53
2023-04-25T15:42:07.510Z,98316.69
2023-04-25T15:45:09.899Z,98315.53
2023-04-25T15:48:11.804Z,98321.59
2023-04-25T15:51:13.291Z,98316.50
2023-04-25T15:54:14.763Z,98316.69
2023-04-25T15:57:17.449Z,98304.53
2023-04-25T16:00:19.498Z,98290.59
2023-04-25T16:03:21.114Z,98294.03
2023-04-25T16:06:22.632Z,98310.66
2023-04-25T16:09:24.079Z,98304.41
2023-04-25T16:12:25.612Z,98309.75
2023-04-25T16:15:27.056Z,98307.53
2023-04-25T16:18:28.515Z,98301.28
2023-04-25T16:21:30.030Z,98292.63
2023-04-25T16:24:31.575Z,98296.91
2023-04-25T16:27:34.646Z,98294.38
2023-04-25T16:30:36.081Z,98292.72
2023-04-25T16:33:37.535Z,98297.09
2023-04-25T16:36:38.988Z,98295.47
2023-04-25T16:39:40.482Z,98300.66
2023-04-25T16:42:41.927Z,98293.72
2023-04-25T16:45:43.441Z,98299.75
2023-04-25T16:48:45.323Z,98294.53
2023-04-25T16:51:46.997Z,98289.38
2023-04-25T16:54:48.471Z,98281.47
2023-04-25T16:57:49.956Z,98270.25
2023-04-25T17:00:51.551Z,98275.50
2023-04-25T17:03:53.263Z,98266.00
2023-04-25T17:06:54.958Z,98267.75
2023-04-25T17:09:56.563Z,98269.47
2023-04-25T17:12:58.112Z,98250.34
2023-04-25T17:16:00.006Z,98244.34
2023-04-25T17:19:01.439Z,98238.28
2023-04-25T17:22:02.919Z,98230.50
2023-04-25T17:25:04.653Z,98229.66
2023-04-25T17:28:06.415Z,98235.75
2023-04-25T17:31:08.842Z,98228.84
2023-04-25T17:34:11.852Z,98224.50
2023-04-25T17:37:16.390Z,98233.16
2023-04-25T17:40:19.154Z,98230.53
2023-04-25T17:43:20.796Z,98228.81
2023-04-25T17:46:22.722Z,98228.81
2023-04-25T17:49:32.228Z,98239.22
2023-04-25T17:52:36.387Z,98241.81
2023-04-25T17:55:52.264Z,98238.31
2023-04-25T17:59:06.027Z,98236.56
2023-04-25T18:02:18.119Z,98244.34
2023-04-25T18:09:42.541Z,98236.53
2023-04-25T18:16:43.483Z,98243.41
2023-04-25T18:23:12.923Z,98249.47
2023-04-25T18:26:19.437Z,98259.03
2023-04-25T18:29:32.881Z,98261.63
2023-04-25T18:32:56.129Z,98265.03
2023-04-25T18:36:05.388Z,98275.41
2023-04-25T18:42:55.797Z,98286.66
2023-04-25T18:46:01.407Z,98294.38
2023-04-25T18:49:11.071Z,98293.50
2023-04-25T18:56:39.193Z,98300.41
2023-04-25T18:59:53.582Z,98290.84
2023-04-25T19:03:12.793Z,98296.06
2023-04-25T19:06:19.461Z,98298.66
2023-04-25T19:09:30.049Z,98314.13
2023-04-25T19:12:35.754Z,98302.91
2023-04-25T19:15:45.866Z,98302.06
2023-04-25T19:18:53.459Z,98306.34
2023-04-25T19:21:55.676Z,98307.25
2023-04-25T19:25:09.854Z,98313.22
2023-04-25T19:28:12.967Z,98309.66
2023-04-25T19:31:14.690Z,98309.63
2023-04-25T19:34:16.693Z,98305.31
2023-04-25T19:37:23.459Z,98312.22
2023-04-25T19:40:25.583Z,98315.81
2023-04-25T19:43:27.296Z,98311.44
2023-04-25T19:46:29.185Z,98310.66
2023-04-25T19:49:31.129Z,98305.34
2023-04-25T19:52:37.419Z,98295.81
2023-04-25T19:55:39.185Z,98295.81
2023-04-25T19:58:40.812Z,98299.19
2023-04-25T20:05:22.350Z,98316.63
2023-04-25T20:08:26.089Z,98314.00
2023-04-25T20:11:29.327Z,98316.66
2023-04-25T20:14:33.121Z,98314.94
2023-04-25T20:17:35.332Z,98317.50
2023-04-25T20:20:36.987Z,98321.56
2023-04-25T20:23:38.550Z,98323.34
2023-04-25T20:26:40.232Z,98333.84
2023-04-25T20:29:42.676Z,98332.22
2023-04-25T20:32:44.132Z,98334.84
2023-04-25T20:35:46.543Z,98338.25
2023-04-25T20:38:48.236Z,98330.28
2023-04-25T20:41:50.037Z,98337.38
2023-04-25T20:44:51.779Z,98337.22
2023-04-25T20:47:53.434Z,98336.28
2023-04-25T20:50:55.046Z,98334.66
2023-04-25T20:53:57.427Z,98342.13
2023-04-25T20:57:00.032Z,98337.88
2023-04-25T21:00:01.705Z,98337.97
2023-04-25T21:03:05.302Z,98335.38
2023-04-25T21:06:07.519Z,98342.13
2023-04-25T21:09:09.754Z,98336.97
2023-04-25T21:12:11.636Z,98339.50
2023-04-25T21:15:14.705Z,98344.84
2023-04-25T21:18:16.439Z,98340.63
2023-04-25T21:21:18.066Z,98345.72
2023-04-25T21:24:22.408Z,98343.06
2023-04-25T21:27:24.029Z,98344.00
2023-04-25T21:30:25.887Z,98352.81
2023-04-25T21:33:30.617Z,98351.03
2023-04-25T21:36:33.245Z,98356.28
2023-04-25T21:39:34.831Z,98358.88
2023-04-25T21:42:36.919Z,98358.00
2023-04-25T21:45:51.416Z,98351.88
2023-04-25T21:48:58.879Z,98351.03
2023-04-25T21:52:00.452Z,98356.88
2023-04-25T21:55:02.079Z,98357.66
2023-04-25T21:58:03.718Z,98362.09
2023-04-25T22:01:05.393Z,98356.06
2023-04-25T22:04:07.172Z,98352.66
2023-04-25T22:07:09.594Z,98348.47
2023-04-25T22:10:11.197Z,98354.56
2023-04-25T22:13:13.065Z,98358.09
2023-04-25T22:16:14.675Z,98361.50
2023-04-25T22:19:18.792Z,98364.00
2023-04-25T22:22:20.955Z,98374.97
2023-04-25T22:25:22.515Z,98365.38
2023-04-25T22:28:24.128Z,98367.22
2023-04-25T22:31:26.111Z,98371.56
2023-04-25T22:34:27.677Z,98361.09
2023-04-25T22:37:29.761Z,98368.06
2023-04-25T22:40:31.534Z,98368.06
2023-04-25T22:43:33.546Z,98368.91
2023-04-25T22:46:35.324Z,98365.53
2023-04-25T22:49:36.976Z,98365.47
2023-04-25T22:52:38.590Z,98368.09
2023-04-25T22:55:40.162Z,98369.75
2023-04-25T22:58:42.757Z,98374.97
2023-04-25T23:01:45.004Z,98373.19
2023-04-25T23:04:46.566Z,98373.97
2023-04-25T23:07:48.527Z,98374.97
2023-04-25T23:10:53.151Z,98369.78
2023-04-25T23:13:55.116Z,98362.88
2023-04-25T23:16:57.222Z,98365.56
2023-04-25T23:19:58.879Z,98367.28
2023-04-25T23:23:00.510Z,98369.94
2023-04-25T23:26:11.736Z,98369.91
2023-04-25T23:29:13.349Z,98373.41
2023-04-25T23:32:14.892Z,98380.28
2023-04-25T23:35:16.446Z,98372.41
2023-04-25T23:38:18.088Z,98376.59
2023-04-25T23:41:19.691Z,98382.84
2023-04-25T23:44:21.350Z,98380.25
2023-04-25T23:47:23.076Z,98386.25
2023-04-25T23:50:41.170Z,98382.78
2023-04-25T23:53:45.723Z,98385.56
2023-04-25T23:56:47.434Z,98389.78
2023-04-25T23:59:48.984Z,98392.25
